Atlantic Challenge — EI5772 — position and weather

sailwx.info

Track history (hours):
 
Tides and Currents Weather Stations Pressure Air Temp Water Temp Dewpoint Dewpoint Depression Visibility Wind Speed Wind Dir Waves Ship Positions

Atlantic Challenge

Last reported at 2017-Nov-24 16:30 UTC. Time now 2017-Nov-24 16:45 UTC.
Position N 62°28' E 006°09'.

Length 59 m; draft 7 m.

MMSI: 250183000.

Date/timePositionNaut miles runAvg speedWind from/ knotsBaromVisibWave heightAir tempDewpointWater temp
2017-Nov-24 16:30N 62°28' E 006°09'0 0.0
2017-Nov-24 16:00N 62°28' E 006°09'0 0.0
2017-Nov-24 15:30N 62°28' E 006°09'0 0.0
2017-Nov-24 15:00N 62°28' E 006°09'0 0.0
2017-Nov-24 14:30N 62°28' E 006°09'0 0.0
2017-Nov-24 14:01N 62°28' E 006°09'0 0.0
2017-Nov-24 13:30N 62°28' E 006°09'0 0.0
2017-Nov-24 13:00N 62°28' E 006°09'0 0.0
2017-Nov-24 12:30N 62°28' E 006°09'0 0.0
2017-Nov-24 12:00N 62°28' E 006°09'0 0.0
2017-Nov-24 11:30N 62°28' E 006°09'0 0.0
2017-Nov-24 11:00N 62°28' E 006°09'1 1.7
2017-Nov-24 10:30N 62°28' E 006°08'0 0.0
2017-Nov-24 10:00N 62°28' E 006°08'0 0.7
2017-Nov-24 09:30N 62°28' E 006°08'2 4.5
2017-Nov-24 09:00N 62°27' E 006°04'5 9.3
2017-Nov-24 08:30N 62°29' E 006°13'3 5.3
2017-Nov-24 08:00N 62°29' E 006°18'0 0.0
2017-Nov-24 07:30N 62°29' E 006°18'0 0.0
2017-Nov-24 07:00N 62°29' E 006°18'0 0.0
2017-Nov-24 06:30N 62°29' E 006°18'0 0.0
2017-Nov-24 06:00N 62°29' E 006°18'0 0.0
2017-Nov-24 05:30N 62°29' E 006°18'0 0.0
2017-Nov-24 04:59N 62°29' E 006°18'0 0.0
2017-Nov-24 04:30N 62°29' E 006°18'0 0.0
2017-Nov-24 04:00N 62°29' E 006°18'0 0.0
2017-Nov-24 03:30N 62°29' E 006°18'0 0.0
2017-Nov-24 03:00N 62°29' E 006°18'0 0.0
2017-Nov-24 02:30N 62°29' E 006°18'0 0.0
2017-Nov-24 02:00N 62°29' E 006°18'0 0.0
2017-Nov-24 01:30N 62°29' E 006°18'0 0.0
2017-Nov-24 01:00N 62°29' E 006°18'0 0.0
2017-Nov-24 00:30N 62°29' E 006°18'0 0.0
2017-Nov-24 00:00N 62°29' E 006°18'0 0.0
2017-Nov-23 23:30N 62°29' E 006°18'0 0.0
2017-Nov-23 23:00N 62°29' E 006°18'0 0.0
2017-Nov-23 22:30N 62°29' E 006°18'0 0.0
2017-Nov-23 22:00N 62°29' E 006°18'0 0.0
2017-Nov-23 21:30N 62°29' E 006°18'0 0.0
2017-Nov-23 21:00N 62°29' E 006°18'0 0.0
2017-Nov-23 20:30N 62°29' E 006°18'0 0.0
2017-Nov-23 20:00N 62°29' E 006°18'0 0.0
2017-Nov-23 19:30N 62°29' E 006°18'0 0.0
2017-Nov-23 18:59N 62°29' E 006°18'0 0.0
2017-Nov-23 18:30N 62°29' E 006°18'0 0.0
2017-Nov-23 18:00N 62°29' E 006°18'0 0.0
2017-Nov-23 17:30N 62°29' E 006°18'0 0.0
2017-Nov-23 17:00N 62°29' E 006°18'0 0.0
2017-Nov-23 16:30N 62°29' E 006°18'0 0.0
2017-Nov-23 16:00N 62°29' E 006°18'0 0.1
2017-Nov-23 15:30N 62°29' E 006°18'0 0.0
2017-Nov-23 15:00N 62°29' E 006°18'0 0.0
2017-Nov-23 14:30N 62°29' E 006°18'0 0.0
2017-Nov-23 14:00N 62°29' E 006°18'0 0.0
2017-Nov-23 13:30N 62°29' E 006°18'0 0.0
2017-Nov-23 13:00N 62°29' E 006°18'0 0.0
2017-Nov-23 12:30N 62°29' E 006°18'0 0.0
2017-Nov-23 12:00N 62°29' E 006°18'0 0.0
2017-Nov-23 11:30N 62°29' E 006°18'0 0.0
2017-Nov-23 11:00N 62°29' E 006°18'0 0.0
2017-Nov-23 10:30N 62°29' E 006°18'0 0.0
2017-Nov-23 10:00N 62°29' E 006°18'0 0.0
2017-Nov-23 09:30N 62°29' E 006°18'0 0.0
2017-Nov-23 09:00N 62°29' E 006°18'0 0.0
2017-Nov-23 08:30N 62°29' E 006°18'0 0.0
2017-Nov-23 08:00N 62°29' E 006°18'0 0.0
2017-Nov-23 07:30N 62°29' E 006°18'0 0.0
2017-Nov-23 07:00N 62°29' E 006°18'0 0.0
2017-Nov-23 06:30N 62°29' E 006°18'0 0.0
2017-Nov-23 06:00N 62°29' E 006°18'0 0.0
2017-Nov-23 05:30N 62°29' E 006°18'0 0.0
2017-Nov-23 05:00N 62°29' E 006°18'0 0.0
2017-Nov-23 04:30N 62°29' E 006°18'0 0.0
2017-Nov-23 04:00N 62°29' E 006°18'0 0.0
2017-Nov-23 03:30N 62°29' E 006°18'0 0.0
2017-Nov-23 03:00N 62°29' E 006°18'0 0.3
2017-Nov-23 02:30N 62°29' E 006°18'4 7.9
2017-Nov-23 02:01N 62°29' E 006°10'5 9.1
2017-Nov-23 01:30N 62°27' E 006°01'4 7.2
2017-Nov-23 01:00N 62°28' E 005°53'4 7.1
2017-Nov-23 00:30N 62°29' E 005°46'4 7.6
2017-Nov-23 00:00N 62°31' E 005°39'611.0
2017-Nov-22 23:30N 62°36' E 005°32'611.7
2017-Nov-22 23:00N 62°41' E 005°26'  
2017-Nov-16 01:45N 55°60' W 007°58'310.5
2017-Nov-16 01:28N 55°57' W 007°60'510.6
2017-Nov-16 00:59N 55°52' W 008°03'610.7
2017-Nov-16 00:24N 55°47' W 008°07'511.0
2017-Nov-15 23:58N 55°42' W 008°10'511.1
2017-Nov-15 23:30N 55°37' W 008°13'611.1
2017-Nov-15 22:56N 55°31' W 008°17'610.8
2017-Nov-15 22:24N 55°26' W 008°21'410.8
2017-Nov-15 22:00N 55°22' W 008°24'510.9
2017-Nov-15 21:30N 55°17' W 008°27'511.0
2017-Nov-15 21:01N 55°12' W 008°30'611.0
2017-Nov-15 20:30N 55°07' W 008°34'611.1
2017-Nov-15 19:56N 55°01' W 008°38'510.9
2017-Nov-15 19:28N 54°56' W 008°41'511.0
2017-Nov-15 19:00N 54°51' W 008°44'611.2
2017-Nov-15 18:28N 54°46' W 008°48'711.0
2017-Nov-15 17:49N 54°39' W 008°51'410.6
2017-Nov-15 17:29N 54°37' W 008°46'510.0
2017-Nov-15 17:00N 54°35' W 008°38'510.5
2017-Nov-15 16:30N 54°36' W 008°29'3 5.9
2017-Nov-15 16:00N 54°38' W 008°27'0 0.0
2017-Nov-15 15:30N 54°38' W 008°27'0 0.0
2017-Nov-15 15:00N 54°38' W 008°27'0 0.0
2017-Nov-15 14:30N 54°38' W 008°27'0 0.0
2017-Nov-15 14:00N 54°38' W 008°27'0 0.0
2017-Nov-15 13:29N 54°38' W 008°27'0 0.0
2017-Nov-15 13:00N 54°38' W 008°27'0 0.0
2017-Nov-15 12:29N 54°38' W 008°27'0 0.0
2017-Nov-15 11:59N 54°38' W 008°27'0 0.0
2017-Nov-15 11:30N 54°38' W 008°27'0 0.0
2017-Nov-15 10:59N 54°38' W 008°27'0 0.0
2017-Nov-15 10:30N 54°38' W 008°27'0 0.0
2017-Nov-15 10:00N 54°38' W 008°27'0 0.0
2017-Nov-15 09:29N 54°38' W 008°27'0 0.0
2017-Nov-15 09:00N 54°38' W 008°27'0 0.0
2017-Nov-15 08:29N 54°38' W 008°27'0 0.0
2017-Nov-15 08:00N 54°38' W 008°27'0 0.0
2017-Nov-15 07:30N 54°38' W 008°27'0 0.0
2017-Nov-15 07:00N 54°38' W 008°27'0 0.0
2017-Nov-15 06:29N 54°38' W 008°27'0 0.0
2017-Nov-15 06:00N 54°38' W 008°27'0 0.0
2017-Nov-15 05:29N 54°38' W 008°27'0 0.0
2017-Nov-15 05:00N 54°38' W 008°27'0 0.0
2017-Nov-15 04:30N 54°38' W 008°27'0 0.0
2017-Nov-15 03:58N 54°38' W 008°27'0 0.0
2017-Nov-15 03:29N 54°38' W 008°27'0 0.0
2017-Nov-15 03:00N 54°38' W 008°27'0 0.0
2017-Nov-15 02:29N 54°38' W 008°27'0 0.0
2017-Nov-15 02:00N 54°38' W 008°27'0 0.0
2017-Nov-15 01:30N 54°38' W 008°27'0 0.0
2017-Nov-15 00:59N 54°38' W 008°27'0 0.0
2017-Nov-15 00:29N 54°38' W 008°27'0 0.0
2017-Nov-14 23:59N 54°38' W 008°27'0 0.0
2017-Nov-14 23:28N 54°38' W 008°27'0 0.0
2017-Nov-14 22:58N 54°38' W 008°27'0 0.0
2017-Nov-14 22:29N 54°38' W 008°27'0 0.0
2017-Nov-14 22:00N 54°38' W 008°27'0 0.0
2017-Nov-14 21:28N 54°38' W 008°27'0 0.0
2017-Nov-14 20:59N 54°38' W 008°27'0 0.0
2017-Nov-14 20:30N 54°38' W 008°27'0 0.0
2017-Nov-14 19:59N 54°38' W 008°27'0 0.0
2017-Nov-14 19:30N 54°38' W 008°27'0 0.0
2017-Nov-14 18:59N 54°38' W 008°27'0 0.0
2017-Nov-14 18:30N 54°38' W 008°27'0 0.0
2017-Nov-14 18:00N 54°38' W 008°27'0 0.0
2017-Nov-14 17:29N 54°38' W 008°27'0 0.0
2017-Nov-14 16:59N 54°38' W 008°27'  
Track history (hours):
 
Tides and Currents Weather Stations Pressure Air Temp Water Temp Dewpoint Dewpoint Depression Visibility Wind Speed Wind Dir Waves Ship Positions

Atlantic Challenge

Last reported at 2017-Nov-24 16:30 UTC. Time now 2017-Nov-24 16:45 UTC.
Position N 62°28' E 006°09'.

Length 59 m; draft 7 m.

MMSI: 250183000.

Date/timePositionNaut miles runAvg speedWind from/ knotsBaromVisibWave heightAir tempDewpointWater temp
2017-Nov-24 16:30N 62°28' E 006°09'0 0.0
2017-Nov-24 16:00N 62°28' E 006°09'0 0.0
2017-Nov-24 15:30N 62°28' E 006°09'0 0.0
2017-Nov-24 15:00N 62°28' E 006°09'0 0.0
2017-Nov-24 14:30N 62°28' E 006°09'0 0.0
2017-Nov-24 14:01N 62°28' E 006°09'0 0.0
2017-Nov-24 13:30N 62°28' E 006°09'0 0.0
2017-Nov-24 13:00N 62°28' E 006°09'0 0.0
2017-Nov-24 12:30N 62°28' E 006°09'0 0.0
2017-Nov-24 12:00N 62°28' E 006°09'0 0.0
2017-Nov-24 11:30N 62°28' E 006°09'0 0.0
2017-Nov-24 11:00N 62°28' E 006°09'1 1.7
2017-Nov-24 10:30N 62°28' E 006°08'0 0.0
2017-Nov-24 10:00N 62°28' E 006°08'0 0.7
2017-Nov-24 09:30N 62°28' E 006°08'2 4.5
2017-Nov-24 09:00N 62°27' E 006°04'5 9.3
2017-Nov-24 08:30N 62°29' E 006°13'3 5.3
2017-Nov-24 08:00N 62°29' E 006°18'0 0.0
2017-Nov-24 07:30N 62°29' E 006°18'0 0.0
2017-Nov-24 07:00N 62°29' E 006°18'0 0.0
2017-Nov-24 06:30N 62°29' E 006°18'0 0.0
2017-Nov-24 06:00N 62°29' E 006°18'0 0.0
2017-Nov-24 05:30N 62°29' E 006°18'0 0.0
2017-Nov-24 04:59N 62°29' E 006°18'0 0.0
2017-Nov-24 04:30N 62°29' E 006°18'0 0.0
2017-Nov-24 04:00N 62°29' E 006°18'0 0.0
2017-Nov-24 03:30N 62°29' E 006°18'0 0.0
2017-Nov-24 03:00N 62°29' E 006°18'0 0.0
2017-Nov-24 02:30N 62°29' E 006°18'0 0.0
2017-Nov-24 02:00N 62°29' E 006°18'0 0.0
2017-Nov-24 01:30N 62°29' E 006°18'0 0.0
2017-Nov-24 01:00N 62°29' E 006°18'0 0.0
2017-Nov-24 00:30N 62°29' E 006°18'0 0.0
2017-Nov-24 00:00N 62°29' E 006°18'0 0.0
2017-Nov-23 23:30N 62°29' E 006°18'0 0.0
2017-Nov-23 23:00N 62°29' E 006°18'0 0.0
2017-Nov-23 22:30N 62°29' E 006°18'0 0.0
2017-Nov-23 22:00N 62°29' E 006°18'0 0.0
2017-Nov-23 21:30N 62°29' E 006°18'0 0.0
2017-Nov-23 21:00N 62°29' E 006°18'0 0.0
2017-Nov-23 20:30N 62°29' E 006°18'0 0.0
2017-Nov-23 20:00N 62°29' E 006°18'0 0.0
2017-Nov-23 19:30N 62°29' E 006°18'0 0.0
2017-Nov-23 18:59N 62°29' E 006°18'0 0.0
2017-Nov-23 18:30N 62°29' E 006°18'0 0.0
2017-Nov-23 18:00N 62°29' E 006°18'0 0.0
2017-Nov-23 17:30N 62°29' E 006°18'0 0.0
2017-Nov-23 17:00N 62°29' E 006°18'0 0.0
2017-Nov-23 16:30N 62°29' E 006°18'0 0.0
2017-Nov-23 16:00N 62°29' E 006°18'0 0.1
2017-Nov-23 15:30N 62°29' E 006°18'0 0.0
2017-Nov-23 15:00N 62°29' E 006°18'0 0.0
2017-Nov-23 14:30N 62°29' E 006°18'0 0.0
2017-Nov-23 14:00N 62°29' E 006°18'0 0.0
2017-Nov-23 13:30N 62°29' E 006°18'0 0.0
2017-Nov-23 13:00N 62°29' E 006°18'0 0.0
2017-Nov-23 12:30N 62°29' E 006°18'0 0.0
2017-Nov-23 12:00N 62°29' E 006°18'0 0.0
2017-Nov-23 11:30N 62°29' E 006°18'0 0.0
2017-Nov-23 11:00N 62°29' E 006°18'0 0.0
2017-Nov-23 10:30N 62°29' E 006°18'0 0.0
2017-Nov-23 10:00N 62°29' E 006°18'0 0.0
2017-Nov-23 09:30N 62°29' E 006°18'0 0.0
2017-Nov-23 09:00N 62°29' E 006°18'0 0.0
2017-Nov-23 08:30N 62°29' E 006°18'0 0.0
2017-Nov-23 08:00N 62°29' E 006°18'0 0.0
2017-Nov-23 07:30N 62°29' E 006°18'0 0.0
2017-Nov-23 07:00N 62°29' E 006°18'0 0.0
2017-Nov-23 06:30N 62°29' E 006°18'0 0.0
2017-Nov-23 06:00N 62°29' E 006°18'0 0.0
2017-Nov-23 05:30N 62°29' E 006°18'0 0.0
2017-Nov-23 05:00N 62°29' E 006°18'0 0.0
2017-Nov-23 04:30N 62°29' E 006°18'0 0.0
2017-Nov-23 04:00N 62°29' E 006°18'0 0.0
2017-Nov-23 03:30N 62°29' E 006°18'0 0.0
2017-Nov-23 03:00N 62°29' E 006°18'0 0.3
2017-Nov-23 02:30N 62°29' E 006°18'4 7.9
2017-Nov-23 02:01N 62°29' E 006°10'5 9.1
2017-Nov-23 01:30N 62°27' E 006°01'4 7.2
2017-Nov-23 01:00N 62°28' E 005°53'4 7.1
2017-Nov-23 00:30N 62°29' E 005°46'4 7.6
2017-Nov-23 00:00N 62°31' E 005°39'611.0
2017-Nov-22 23:30N 62°36' E 005°32'611.7
2017-Nov-22 23:00N 62°41' E 005°26'  
2017-Nov-16 01:45N 55°60' W 007°58'310.5
2017-Nov-16 01:28N 55°57' W 007°60'510.6
2017-Nov-16 00:59N 55°52' W 008°03'610.7
2017-Nov-16 00:24N 55°47' W 008°07'511.0
2017-Nov-15 23:58N 55°42' W 008°10'511.1
2017-Nov-15 23:30N 55°37' W 008°13'611.1
2017-Nov-15 22:56N 55°31' W 008°17'610.8
2017-Nov-15 22:24N 55°26' W 008°21'410.8
2017-Nov-15 22:00N 55°22' W 008°24'510.9
2017-Nov-15 21:30N 55°17' W 008°27'511.0
2017-Nov-15 21:01N 55°12' W 008°30'611.0
2017-Nov-15 20:30N 55°07' W 008°34'611.1
2017-Nov-15 19:56N 55°01' W 008°38'510.9
2017-Nov-15 19:28N 54°56' W 008°41'511.0
2017-Nov-15 19:00N 54°51' W 008°44'611.2
2017-Nov-15 18:28N 54°46' W 008°48'711.0
2017-Nov-15 17:49N 54°39' W 008°51'410.6
2017-Nov-15 17:29N 54°37' W 008°46'510.0
2017-Nov-15 17:00N 54°35' W 008°38'510.5
2017-Nov-15 16:30N 54°36' W 008°29'3 5.9
2017-Nov-15 16:00N 54°38' W 008°27'0 0.0
2017-Nov-15 15:30N 54°38' W 008°27'0 0.0
2017-Nov-15 15:00N 54°38' W 008°27'0 0.0
2017-Nov-15 14:30N 54°38' W 008°27'0 0.0
2017-Nov-15 14:00N 54°38' W 008°27'0 0.0
2017-Nov-15 13:29N 54°38' W 008°27'0 0.0
2017-Nov-15 13:00N 54°38' W 008°27'0 0.0
2017-Nov-15 12:29N 54°38' W 008°27'0 0.0
2017-Nov-15 11:59N 54°38' W 008°27'0 0.0
2017-Nov-15 11:30N 54°38' W 008°27'0 0.0
2017-Nov-15 10:59N 54°38' W 008°27'0 0.0
2017-Nov-15 10:30N 54°38' W 008°27'0 0.0
2017-Nov-15 10:00N 54°38' W 008°27'0 0.0
2017-Nov-15 09:29N 54°38' W 008°27'0 0.0
2017-Nov-15 09:00N 54°38' W 008°27'0 0.0
2017-Nov-15 08:29N 54°38' W 008°27'0 0.0
2017-Nov-15 08:00N 54°38' W 008°27'0 0.0
2017-Nov-15 07:30N 54°38' W 008°27'0 0.0
2017-Nov-15 07:00N 54°38' W 008°27'0 0.0
2017-Nov-15 06:29N 54°38' W 008°27'0 0.0
2017-Nov-15 06:00N 54°38' W 008°27'0 0.0
2017-Nov-15 05:29N 54°38' W 008°27'0 0.0
2017-Nov-15 05:00N 54°38' W 008°27'0 0.0
2017-Nov-15 04:30N 54°38' W 008°27'0 0.0
2017-Nov-15 03:58N 54°38' W 008°27'0 0.0
2017-Nov-15 03:29N 54°38' W 008°27'0 0.0
2017-Nov-15 03:00N 54°38' W 008°27'0 0.0
2017-Nov-15 02:29N 54°38' W 008°27'0 0.0
2017-Nov-15 02:00N 54°38' W 008°27'0 0.0
2017-Nov-15 01:30N 54°38' W 008°27'0 0.0
2017-Nov-15 00:59N 54°38' W 008°27'0 0.0
2017-Nov-15 00:29N 54°38' W 008°27'0 0.0
2017-Nov-14 23:59N 54°38' W 008°27'0 0.0
2017-Nov-14 23:28N 54°38' W 008°27'0 0.0
2017-Nov-14 22:58N 54°38' W 008°27'0 0.0
2017-Nov-14 22:29N 54°38' W 008°27'0 0.0
2017-Nov-14 22:00N 54°38' W 008°27'0 0.0
2017-Nov-14 21:28N 54°38' W 008°27'0 0.0
2017-Nov-14 20:59N 54°38' W 008°27'0 0.0
2017-Nov-14 20:30N 54°38' W 008°27'0 0.0
2017-Nov-14 19:59N 54°38' W 008°27'0 0.0
2017-Nov-14 19:30N 54°38' W 008°27'0 0.0
2017-Nov-14 18:59N 54°38' W 008°27'0 0.0
2017-Nov-14 18:30N 54°38' W 008°27'0 0.0
2017-Nov-14 18:00N 54°38' W 008°27'0 0.0
2017-Nov-14 17:29N 54°38' W 008°27'0 0.0
2017-Nov-14 16:59N 54°38' W 008°27'  

Dump ship's entire track history